Terminal Aerodrome Forecast
Issued by NWS

Home | Current Version | Previous Version | Text Only | Print | Product List | Glossary On
Versions: 1 2 3 4 5 6 7 8 9 10 11 12 13 14 15 16 17 18 19
000
FTUS43 KDTX 250954 AAA
TAFMBS
TAF AMD
KMBS 250954Z 2510/2606 22004KT 3SM BR SCT040 BKN100
      TEMPO 2510/2512 BKN060
     FM251200 24011KT P6SM SCT025 OVC040
     FM251500 27015G25KT P6SM BKN020
     FM251800 28016G26KT P6SM SKC
     FM260000 27011KT P6SM SKC=

USA.gov is the U.S. government's official web portal to all federal, state and local government web resources and services.